»·PEaware :: N739WR NONE-KLGB

N739WR :: NONE-KLGB

FLIGHT INFORMATION

Flight Status: Arrived
Operator: Privately registered:
United States
More flights under this callsign
Pilot: Kinlok P. (11459)
Aircraft: CESSNA 172 SKYHAWK
(C172)
More flights by this aircraft type
Origin: NONE
Destination: KLGB Long Beach
United States
More flights between these airports :: More routes between these airports
Route: +
File this flight plan on PilotEdge
Remarks:
Altitude:
(Current/Filed)
0ft
Speed:
(Current/Filed)
0kts
Departed: 11-Jul-19 07:44 PM
Arrived: 11-Jul-19 08:30 PM
Distance/Time
Traveled:
Not Available
Distance/Time
To Go:
Arrived

Flight Plot

Page will automatically refresh every two minutes.

Flight plan parsing failed; only flown route is shown


Map Options




Map Legend


Flown Route
Filed Route
Departure Airport
Arrival Airport
Navaid (VOR, NDB)
Fix

Horizontal Profiles

Position Reports

Time Latitude Longitude Heading Altitude Ground
Speed
11-Jul-19 19:42 33.748483 -117.300179 265 3007ft 75kts
11-Jul-19 19:43 33.752602 -117.324134 298 3633ft 74kts
11-Jul-19 19:44 33.763213 -117.345754 304 4222ft 76kts
11-Jul-19 19:45 33.771506 -117.369285 274 4574ft 84kts
11-Jul-19 19:46 33.772728 -117.403021 276 4571ft 101kts
11-Jul-19 19:47 33.775343 -117.438824 274 4435ft 104kts
11-Jul-19 19:48 33.776531 -117.475467 270 4401ft 116kts
11-Jul-19 19:49 33.775975 -117.515097 267 4399ft 119kts
11-Jul-19 19:50 33.773854 -117.555041 266 4399ft 119kts
11-Jul-19 19:51 33.778634 -117.593080 299 4415ft 117kts
11-Jul-19 19:52 33.793687 -117.626870 281 4416ft 119kts
11-Jul-19 19:53 33.797874 -117.666322 275 4262ft 125kts
11-Jul-19 19:54 33.802159 -117.709860 273 3482ft 133kts
11-Jul-19 19:55 33.804083 -117.750734 273 3415ft 115kts
11-Jul-19 19:57 33.804501 -117.778339 271 3434ft 108kts
11-Jul-19 19:58 33.804989 -117.801572 271 3437ft 111kts
11-Jul-19 19:59 33.806065 -117.832696 271 3435ft 115kts
11-Jul-19 20:00 33.807029 -117.851041 271 3435ft 117kts
11-Jul-19 20:01 33.808621 -117.883665 271 3489ft 116kts
11-Jul-19 20:02 33.809359 -117.898876 271 3490ft 118kts
11-Jul-19 20:03 33.809396 -117.938144 268 3490ft 118kts
11-Jul-19 20:04 33.808395 -117.977225 268 3508ft 117kts
11-Jul-19 20:05 33.828413 -117.982010 58 2639ft 124kts
11-Jul-19 20:06 33.848260 -117.950503 39 1449ft 102kts
11-Jul-19 20:07 33.870409 -117.947050 325 883ft 87kts
11-Jul-19 20:08 33.874193 -117.968734 252 298ft 60kts
11-Jul-19 20:09 33.871391 -117.981061 355 90ft 3kts
11-Jul-19 20:10 33.871429 -117.980846 96 90ft 6kts
11-Jul-19 20:11 33.872387 -117.975642 84 95ft 0kts
11-Jul-19 20:12 33.872712 -117.974820 7 95ft 9kts
11-Jul-19 20:13 33.869330 -117.992926 198 528ft 69kts
11-Jul-19 20:14 33.858595 -117.973936 81 1052ft 84kts
11-Jul-19 20:15 33.858925 -117.946559 80 1747ft 84kts
11-Jul-19 20:15 33.859523 -117.923123 110 2186ft 97kts
11-Jul-19 20:17 33.860766 -117.886237 88 2288ft 107kts
11-Jul-19 20:18 33.872107 -117.881984 281 2386ft 99kts
11-Jul-19 20:18 33.878561 -117.872078 120 2566ft 80kts
11-Jul-19 20:20 33.865829 -117.896151 217 3164ft 92kts
11-Jul-19 20:20 33.854499 -117.913491 254 3638ft 93kts
11-Jul-19 20:21 33.850190 -117.942817 254 4244ft 92kts
11-Jul-19 20:22 33.845314 -117.975982 257 4169ft 107kts
11-Jul-19 20:23 33.837910 -118.008845 246 3332ft 105kts
11-Jul-19 20:24 33.823447 -118.038947 245 2541ft 105kts
11-Jul-19 20:25 33.814792 -118.071198 265 1585ft 99kts
11-Jul-19 20:26 33.813609 -118.099520 272 918ft 80kts
11-Jul-19 20:27 33.813585 -118.121125 276 592ft 59kts
11-Jul-19 20:28 33.813654 -118.139381 276 160ft 56kts
11-Jul-19 20:29 33.813875 -118.153036 267 42ft 19kts
11-Jul-19 20:30 33.812308 -118.156722 146 46ft 1kts
11-Jul-19 20:31 33.812292 -118.156711 151 46ft 0kts

Navigation Log

Ident Type
Flight plan parsing failed, navigation log unavailable